Terminal Aerodrome Forecast
Issued by NWS

Home | Current Version | Previous Version | Text Only | Print | Product List | Glossary On
Versions: 1 2 3 4 5 6 7 8 9 10 11 12 13 14 15 16 17 18 19 20 21 22 23 24 25
172
FTUS43 KDLH 231620 AAA
TAFBRD
TAF AMD
KBRD 231620Z 2316/2412 14008G15KT P6SM OVC250
     FM231900 15010KT P6SM VCTS SCT050CB OVC100
      TEMPO 2319/2321 6SM -TSRA BKN035CB OVC100
     FM240100 19006KT P6SM VCSH SCT010 BKN025
     FM240600 26006KT P6SM SCT025=

USA.gov is the U.S. government's official web portal to all federal, state and local government web resources and services.